Latest Weather Observations for Cape Willoughby

IDS60801

Issued at 12:05 pm CDT Thursday 27 November 2014 (issued every 30 minutes, with the page automatically refreshed every 10 minutes)

About weather observations | Map of weather stations | Latest weather observations for SA | Other Formats
Station Details ID: 022803 Name: CAPE WILLOUGHBY Lat: -35.84 Lon: 138.13 Height: 55.0 m
Data from the previous 72 hours. | See also: Recent months at Cape Willoughby
Date/Time
CDT
Temp
°C
App
Temp
°C
Dew
Point
Rel
Hum
%
Delta-T
°C
Wind Press
QNH
hPa
Press
MSL
hPa
Rain
since 9 am
mm
Dir
 
Spd
km/h
Gust
km/h
Spd
kts
Gust
kts
27/12:00pm 16.4 12.4 10.3 67 3.2 ESE 22 30 12 16 1025.2 1025.1 0.0
27/11:30am 15.9 11.4 10.0 68 3.1 ESE 24 30 13 16 1025.3 1025.2 0.0
27/11:00am 15.6 10.3 9.9 69 3.0 ESE 28 35 15 19 1025.4 1025.3 0.0
27/10:30am 15.5 10.8 10.5 72 2.6 ESE 26 32 14 17 1025.5 1025.4 0.0
27/10:00am 15.2 10.2 10.8 75 2.3 ESE 28 35 15 19 1025.5 1025.4 0.0
27/09:30am 14.7 9.1 10.1 74 2.4 ESE 30 37 16 20 1025.8 1025.7 0.0
27/09:00am 14.8 9.2 10.2 74 2.4 ESE 30 39 16 21 1026.0 1025.9 0.0
27/08:30am 14.6 8.9 9.8 73 2.5 ESE 30 39 16 21 1025.7 1025.6 0.0
27/08:00am 14.7 8.8 10.3 75 2.3 ESE 32 39 17 21 1025.6 1025.5 0.0
27/07:30am 14.7 9.2 10.7 77 2.1 ESE 30 35 16 19 1025.4 1025.3 0.0
27/07:00am 14.4 8.9 10.6 78 2.0 ESE 30 37 16 20 1025.0 1024.9 0.0
27/06:30am 14.8 9.2 11.6 81 1.7 ESE 32 39 17 21 1024.7 1024.6 0.0
27/06:00am 14.8 9.2 11.6 81 1.7 ESE 32 39 17 21 1024.4 1024.3 0.0
27/05:30am 14.8 8.9 11.0 78 2.0 SE 33 41 18 22 1024.0 1023.9 0.0
27/05:00am 14.7 9.0 11.1 79 1.9 SE 32 39 17 21 1023.8 1023.7 0.0
27/04:30am 14.7 8.5 11.3 80 1.8 SE 35 41 19 22 1023.5 1023.4 0.0
27/04:00am 14.6 8.9 11.0 79 1.9 SE 32 39 17 21 1023.8 1023.7 0.0
27/03:30am 14.9 9.3 11.5 80 1.8 SE 32 35 17 19 1023.7 1023.6 0.0
27/03:00am 14.9 10.0 11.3 79 1.9 SE 28 33 15 18 1024.1 1024.0 0.0
27/02:30am 15.1 9.6 11.7 80 1.8 SE 32 37 17 20 1024.2 1024.1 0.0
27/02:00am 15.1 9.9 11.7 80 1.8 SE 30 37 16 20 1024.3 1024.2 0.0
27/01:30am 15.1 10.3 11.5 79 1.9 SE 28 35 15 19 1024.5 1024.4 0.0
27/01:00am 15.3 10.6 11.9 80 1.8 SE 28 33 15 18 1024.6 1024.5 0.0
27/12:30am 15.4 10.2 11.6 78 2.0 SE 30 37 16 20 1024.6 1024.5 0.0
27/12:00am 15.1 10.7 11.7 80 1.8 SE 26 33 14 18 1024.7 1024.6 0.0
 
Date/Time
CDT
Temp
°C
App
Temp
°C
Dew
Point
Rel
Hum
%
Delta-T
°C
Wind Press
QNH
hPa
Press
MSL
hPa
Rain
since 9 am
mm
Dir
 
Spd
km/h
Gust
km/h
Spd
kts
Gust
kts
26/11:30pm 15.0 12.8 13.2 89 1.0 SE 17 20 9 11 1024.9 1024.8 0.0
26/11:00pm 15.2 10.9 13.1 87 1.2 SE 28 41 15 22 1024.7 1024.6 0.0
26/10:30pm 15.4 11.0 12.9 85 1.4 SE 28 39 15 21 1024.7 1024.6 0.0
26/10:00pm 15.5 10.9 12.4 82 1.7 SE 28 39 15 21 1024.5 1024.4 0.0
26/09:30pm 15.5 11.2 11.9 79 1.9 SSE 26 32 14 17 1024.2 1024.1 0.0
26/09:00pm 15.8 11.7 12.7 82 1.7 SSE 26 33 14 18 1024.2 1024.1 0.0
26/08:30pm 15.5 11.2 12.1 80 1.8 SSE 26 33 14 18 1024.0 1023.9 0.0
26/08:00pm 15.7 12.5 13.0 84 1.5 SSE 22 30 12 16 1023.9 1023.8 0.0
26/07:30pm 15.9 12.0 12.1 78 2.1 SSE 24 32 13 17 1023.6 1023.5 0.0
26/07:00pm 15.9 12.4 12.1 78 2.1 SSE 22 26 12 14 1023.5 1023.4 0.0
26/06:30pm 15.7 11.6 11.5 76 2.3 SSE 24 33 13 18 1023.3 1023.2 0.0
26/06:00pm 15.9 11.8 11.5 75 2.4 SSE 24 32 13 17 1023.3 1023.2 0.0
26/05:30pm 15.8 12.0 11.2 74 2.5 SSE 22 28 12 15 1023.4 1023.3 0.0
26/05:00pm 16.2 12.1 11.4 73 2.6 SSE 24 32 13 17 1023.5 1023.4 0.0
26/04:30pm 16.1 12.0 11.3 73 2.6 SSE 24 30 13 16 1023.4 1023.3 0.0
26/04:00pm 16.1 12.5 11.7 75 2.4 SSE 22 32 12 17 1023.6 1023.5 0.0
26/03:30pm 16.1 12.9 11.1 72 2.7 SSE 19 26 10 14 1023.8 1023.7 0.0
26/03:00pm 16.1 12.8 10.8 71 2.8 SSE 19 24 10 13 1024.2 1024.1 0.0
26/02:30pm 15.6 12.3 11.0 74 2.4 SSE 19 24 10 13 1024.2 1024.1 0.0
26/02:00pm 16.4 13.6 11.3 72 2.8 S 17 22 9 12 1024.6 1024.5 0.0
26/01:30pm 15.5 12.9 11.9 79 1.9 S 17 24 9 13 1024.7 1024.6 0.0
26/01:00pm 15.9 13.1 11.3 74 2.5 SSE 17 22 9 12 1025.0 1024.9 0.0
26/12:30pm 15.8 13.1 11.8 77 2.2 SSE 17 20 9 11 1025.1 1025.0 0.0
26/12:00pm 15.9 12.8 11.7 76 2.3 SSE 19 26 10 14 1025.2 1025.1 0.0
26/11:30am 15.7 13.2 9.8 68 3.1 S 13 17 7 9 1025.3 1025.2 0.0
26/11:00am 15.8 13.1 10.3 70 2.9 S 15 19 8 10 1025.2 1025.1 0.0
26/10:30am 15.7 13.0 9.1 65 3.4 S 13 19 7 10 1025.1 1025.0 0.0
26/10:00am 15.2 12.2 9.3 68 3.0 S 15 17 8 9 1024.9 1024.8 0.0
26/09:30am 15.0 13.0 10.0 72 2.6 SSE 11 17 6 9 1024.7 1024.6 0.0
26/09:00am 14.7 11.9 9.9 73 2.5 S 15 20 8 11 1024.5 1024.4 0.0
26/08:30am 14.8 12.1 9.0 68 2.9 SSE 13 17 7 9 1024.2 1024.1 0.0
26/08:00am 14.7 12.2 8.4 66 3.2 S 11 19 6 10 1024.0 1023.9 0.0
26/07:30am 14.4 11.4 7.9 65 3.2 S 13 19 7 10 1023.5 1023.4 0.0
26/07:00am 14.3 11.1 8.3 67 3.0 S 15 20 8 11 1023.2 1023.1 0.0
26/06:30am 14.4 11.2 8.6 68 2.9 S 15 20 8 11 1022.9 1022.8 0.0
26/06:00am 14.3 10.7 8.3 67 3.0 S 17 22 9 12 1022.4 1022.3 0.0
26/05:30am 14.4 11.6 8.6 68 2.9 SSE 13 22 7 12 1022.3 1022.2 0.0
26/05:00am 14.3 10.7 8.3 67 3.0 SSE 17 22 9 12 1022.0 1021.9 0.0
26/04:30am 14.1 11.2 8.1 67 3.0 S 13 19 7 10 1022.1 1022.0 0.0
26/04:00am 14.0 10.6 7.8 66 3.1 S 15 20 8 11 1022.2 1022.1 0.0
26/03:30am 14.1 10.3 7.4 64 3.3 S 17 22 9 12 1022.1 1022.0 0.0
26/03:00am 14.2 10.4 7.5 64 3.3 S 17 22 9 12 1022.2 1022.1 0.0
26/02:30am 14.3 10.9 7.6 64 3.3 S 15 19 8 10 1022.2 1022.1 0.0
26/02:00am 14.2 10.8 7.5 64 3.3 S 15 19 8 10 1022.3 1022.2 0.0
26/01:30am 14.2 11.2 7.5 64 3.3 S 13 17 7 9 1022.6 1022.5 0.0
26/01:00am 14.4 12.2 7.7 64 3.3 S 9 15 5 8 1023.2 1023.1 0.0
26/12:30am 14.5 11.6 8.2 66 3.1 S 13 19 7 10 1023.2 1023.1 0.0
26/12:00am 14.5 10.9 8.2 66 3.1 S 17 20 9 11 1023.4 1023.3 0.0
 
Date/Time
CDT
Temp
°C
App
Temp
°C
Dew
Point
Rel
Hum
%
Delta-T
°C
Wind Press
QNH
hPa
Press
MSL
hPa
Rain
since 9 am
mm
Dir
 
Spd
km/h
Gust
km/h
Spd
kts
Gust
kts
25/11:30pm 14.5 10.9 8.5 67 3.0 S 17 22 9 12 1023.6 1023.5 0.0
25/11:00pm 14.5 10.9 8.5 67 3.0 S 17 24 9 13 1023.7 1023.6 0.0
25/10:30pm 14.8 11.0 9.0 68 2.9 S 19 24 10 13 1023.7 1023.6 0.0
25/10:00pm 14.7 10.9 8.9 68 3.0 S 19 22 10 12 1023.9 1023.8 0.0
25/09:30pm 14.7 11.1 8.4 66 3.2 S 17 24 9 13 1023.9 1023.8 0.0
25/09:00pm 14.9 11.1 9.1 68 3.0 S 19 22 10 12 1023.7 1023.6 0.0
25/08:30pm 14.7 10.5 8.4 66 3.2 S 20 26 11 14 1023.4 1023.3 0.0
25/08:00pm 14.9 11.4 8.8 67 3.1 S 17 24 9 13 1023.3 1023.2 0.0
25/07:30pm 15.0 10.9 8.7 66 3.2 S 20 30 11 16 1023.2 1023.1 0.0
25/07:00pm 15.2 11.3 8.7 65 3.3 S 19 28 10 15 1022.9 1022.8 0.0
25/06:30pm 15.4 11.4 8.2 62 3.6 S 19 26 10 14 1022.7 1022.6 0.0
25/06:00pm 15.8 12.1 7.8 59 4.0 SSW 17 26 9 14 1022.7 1022.6 0.0
25/05:30pm 15.6 11.9 9.5 67 3.2 S 19 28 10 15 1022.6 1022.5 0.0
25/05:00pm 16.2 12.0 8.4 60 4.0 SSW 20 28 11 15 1022.6 1022.5 0.0
25/04:30pm 16.2 12.6 8.4 60 4.0 SSW 17 28 9 15 1022.7 1022.6 0.0
25/04:00pm 16.1 12.7 9.3 64 3.5 S 17 26 9 14 1022.7 1022.6 0.0
25/03:30pm 16.1 12.6 8.8 62 3.7 S 17 28 9 15 1022.8 1022.7 0.0
25/03:00pm 16.1 12.6 8.8 62 3.7 S 17 28 9 15 1022.9 1022.8 0.0
25/02:30pm 16.7 13.0 9.4 62 3.8 SSW 19 30 10 16 1022.9 1022.8 0.0
25/02:00pm 16.2 12.3 9.4 64 3.5 S 20 32 11 17 1022.8 1022.7 0.0
25/01:30pm 16.4 12.0 8.9 61 3.8 S 22 32 12 17 1022.9 1022.8 0.0
25/01:00pm 16.4 12.1 7.9 57 4.3 S 20 28 11 15 1022.9 1022.8 0.0
25/12:30pm 16.0 12.3 9.4 65 3.4 S 19 32 10 17 1023.0 1022.9 0.0
25/12:00pm 16.0 12.2 9.2 64 3.5 S 19 28 10 15 1023.1 1023.0 0.0
25/11:30am 16.4 12.8 8.4 59 4.1 S 17 26 9 14 1023.2 1023.1 0.0
25/11:00am 16.4 11.0 8.1 58 4.2 SW 26 32 14 17 1023.3 1023.2 0.0
25/10:30am 15.8 10.2 10.1 69 3.0 SSW 30 39 16 21 1023.1 1023.0 0.0
25/10:21am 16.0 10.0 10.7 71 2.8 SSW 33 39 18 21 1023.0 1022.9 0.0
25/10:00am 15.7 13.2 8.0 60 3.9 S 11 20 6 11 1023.2 1023.1 0.0
25/09:30am 16.6 12.7 9.3 62 3.8 SW 20 24 11 13 1023.2 1023.1 0.0
25/09:00am 14.9 10.8 7.9 63 3.5 SW 19 24 10 13 1022.9 1022.8 0.6
25/08:30am 14.6 10.1 8.5 67 3.1 SW 22 28 12 15 1022.6 1022.5 0.6
25/08:00am 13.9 10.0 8.7 71 2.6 SW 19 30 10 16 1022.2 1022.1 0.6
25/07:30am 13.5 11.6 10.5 82 1.6 SW 11 19 6 10 1022.2 1022.1 0.6
25/07:00am 14.2 12.6 8.8 70 2.7 WSW 7 15 4 8 1021.6 1021.5 0.0
25/06:30am 14.0 11.3 8.8 71 2.6 WSW 13 19 7 10 1021.2 1021.1 0.0
25/06:00am 13.3 10.4 8.2 71 2.5 WSW 13 19 7 10 1020.8 1020.7 0.0
25/05:30am 13.7 9.6 7.9 68 2.9 SW 19 26 10 14 1020.5 1020.4 0.0
25/05:00am 14.2 9.6 8.2 67 3.0 SW 22 30 12 16 1020.1 1020.0 0.0
25/04:30am 14.2 8.3 7.3 63 3.4 SW 28 35 15 19 1019.7 1019.7 0.0
25/04:00am 14.3 9.0 8.3 67 3.0 SSW 26 35 14 19 1019.6 1019.6 0.0
25/03:30am 14.5 8.7 9.5 72 2.6 SSW 30 37 16 20 1019.4 1019.4 0.0
25/03:00am 14.4 8.4 8.8 69 2.8 SSW 30 37 16 20 1019.1 1019.1 0.0
25/02:30am 14.5 8.6 9.1 70 2.8 SSW 30 39 16 21 1019.2 1019.2 0.0
25/02:00am 14.6 8.8 9.4 71 2.7 SSW 30 39 16 21 1019.3 1019.3 0.0
25/01:30am 14.5 8.1 9.5 72 2.6 SSW 33 39 18 21 1019.2 1019.2 0.0
25/01:00am 14.4 8.1 9.6 73 2.5 SW 33 43 18 23 1019.2 1019.2 0.0
25/12:30am 14.5 8.9 8.9 69 2.8 SW 28 37 15 20 1019.6 1019.6 0.0
25/12:00am 14.6 9.1 9.2 70 2.8 SW 28 37 15 20 1019.6 1019.6 0.0
 
Date/Time
CDT
Temp
°C
App
Temp
°C
Dew
Point
Rel
Hum
%
Delta-T
°C
Wind Press
QNH
hPa
Press
MSL
hPa
Rain
since 9 am
mm
Dir
 
Spd
km/h
Gust
km/h
Spd
kts
Gust
kts
24/11:30pm 14.7 8.2 9.1 69 2.9 SW 33 44 18 24 1019.3 1019.3 0.0
24/11:00pm 14.8 8.2 8.7 67 3.1 SW 33 43 18 23 1019.3 1019.3 0.0
24/10:30pm 14.8 8.4 8.5 66 3.2 SW 32 41 17 22 1019.4 1019.4 0.0
24/10:00pm 14.9 7.2 8.6 66 3.2 SW 39 48 21 26 1018.9 1018.9 0.0
24/09:30pm 14.8 8.4 8.5 66 3.2 SW 32 43 17 23 1018.6 1018.6 0.0
24/09:00pm 14.8 8.3 8.3 65 3.3 SW 32 44 17 24 1018.3 1018.3 0.0
24/08:30pm 15.1 8.2 9.0 67 3.1 SW 35 46 19 25 1017.9 1017.9 0.0
24/08:00pm 15.0 8.5 8.3 64 3.4 WSW 32 43 17 23 1017.7 1017.7 0.0
24/07:30pm 15.4 8.1 8.9 65 3.3 SW 37 46 20 25 1017.1 1017.1 0.0
24/07:00pm 15.7 7.5 8.2 61 3.8 SW 41 52 22 28 1016.6 1016.6 0.0
24/06:30pm 16.0 6.9 7.0 55 4.4 SW 44 56 24 30 1016.3 1016.3 0.0
24/06:00pm 16.8 9.2 9.2 61 3.9 SW 39 50 21 27 1016.3 1016.3 0.0
24/05:30pm 16.0 7.8 8.0 59 4.0 SW 41 50 22 27 1015.9 1015.9 0.0
24/05:00pm 16.8 8.2 8.2 57 4.4 SW 43 54 23 29 1015.6 1015.6 0.0
24/04:30pm 16.8 7.9 7.7 55 4.6 SW 44 52 24 28 1015.4 1015.4 0.0
24/04:00pm 17.2 8.5 8.4 56 4.5 SW 44 56 24 30 1015.0 1015.0 0.0
24/03:30pm 16.9 9.7 9.3 61 4.0 SSW 37 46 20 25 1014.9 1014.9 0.0
24/03:00pm 17.3 9.1 8.4 56 4.6 SW 41 52 22 28 1014.7 1014.6 0.0
24/02:30pm 17.5 9.7 8.1 54 4.8 SSW 39 52 21 28 1014.7 1014.6 0.0
24/02:00pm 17.4 8.8 8.3 55 4.7 SSW 43 54 23 29 1014.5 1014.4 0.0
24/01:30pm 17.4 9.3 10.1 62 3.9 SSW 43 57 23 31 1014.4 1014.3 0.0
24/01:00pm 17.5 10.2 10.1 62 3.9 SSW 39 48 21 26 1014.3 1014.2 0.0
24/12:30pm 17.8 11.0 10.7 63 3.8 SSW 37 46 20 25 1014.2 1014.1 0.0

Other Formats:

Comma delimited format used in spreadsheet applications
http://www.bom.gov.au/fwo/IDS60801/IDS60801.94822.axf

JavaScript Object Notation format (JSON) in row-major order
http://www.bom.gov.au/fwo/IDS60801/IDS60801.94822.json